sensor_id;sensor_type;location;lat;lon;timestamp;P1;durP1;ratioP1;P2;durP2;ratioP2
16665;SDS011;8446;50.998;6.250;2022-07-18T00:00:59;8.90;;;3.70;;
16665;SDS011;8446;50.998;6.250;2022-07-18T00:03:26;10.93;;;3.27;;
16665;SDS011;8446;50.998;6.250;2022-07-18T00:05:53;11.87;;;3.83;;
16665;SDS011;8446;50.998;6.250;2022-07-18T00:08:20;15.60;;;4.03;;
16665;SDS011;8446;50.998;6.250;2022-07-18T00:10:47;7.07;;;3.20;;
16665;SDS011;8446;50.998;6.250;2022-07-18T00:13:14;16.80;;;4.50;;
16665;SDS011;8446;50.998;6.250;2022-07-18T00:15:43;9.60;;;3.53;;
16665;SDS011;8446;50.998;6.250;2022-07-18T00:18:10;6.27;;;3.20;;
16665;SDS011;8446;50.998;6.250;2022-07-18T00:20:37;10.53;;;3.43;;
16665;SDS011;8446;50.998;6.250;2022-07-18T00:23:04;5.83;;;3.37;;
16665;SDS011;8446;50.998;6.250;2022-07-18T00:25:31;12.90;;;3.47;;
16665;SDS011;8446;50.998;6.250;2022-07-18T00:27:58;9.03;;;3.00;;
16665;SDS011;8446;50.998;6.250;2022-07-18T00:30:24;15.43;;;3.27;;
16665;SDS011;8446;50.998;6.250;2022-07-18T00:32:53;13.17;;;4.47;;
16665;SDS011;8446;50.998;6.250;2022-07-18T00:35:20;13.17;;;2.90;;
16665;SDS011;8446;50.998;6.250;2022-07-18T00:37:47;3.83;;;2.77;;
16665;SDS011;8446;50.998;6.250;2022-07-18T00:40:14;14.57;;;3.40;;
16665;SDS011;8446;50.998;6.250;2022-07-18T00:42:41;5.43;;;3.33;;
16665;SDS011;8446;50.998;6.250;2022-07-18T00:45:09;9.87;;;3.60;;
16665;SDS011;8446;50.998;6.250;2022-07-18T00:47:36;4.60;;;3.17;;
16665;SDS011;8446;50.998;6.250;2022-07-18T00:50:04;22.37;;;3.70;;
16665;SDS011;8446;50.998;6.250;2022-07-18T00:52:32;10.40;;;2.80;;
16665;SDS011;8446;50.998;6.250;2022-07-18T00:54:59;12.80;;;3.33;;
16665;SDS011;8446;50.998;6.250;2022-07-18T00:57:27;11.50;;;4.10;;
16665;SDS011;8446;50.998;6.250;2022-07-18T00:59:54;18.93;;;3.67;;
16665;SDS011;8446;50.998;6.250;2022-07-18T01:02:39;10.97;;;3.50;;
16665;SDS011;8446;50.998;6.250;2022-07-18T01:05:08;9.03;;;3.10;;
16665;SDS011;8446;50.998;6.250;2022-07-18T01:07:35;6.73;;;3.00;;
16665;SDS011;8446;50.998;6.250;2022-07-18T01:10:03;23.90;;;3.70;;
16665;SDS011;8446;50.998;6.250;2022-07-18T01:12:31;9.00;;;3.10;;
16665;SDS011;8446;50.998;6.250;2022-07-18T01:14:58;18.90;;;3.60;;
16665;SDS011;8446;50.998;6.250;2022-07-18T01:17:25;8.80;;;3.40;;
16665;SDS011;8446;50.998;6.250;2022-07-18T01:19:52;5.67;;;3.40;;
16665;SDS011;8446;50.998;6.250;2022-07-18T01:22:20;12.37;;;3.17;;
16665;SDS011;8446;50.998;6.250;2022-07-18T01:24:47;11.80;;;3.20;;
16665;SDS011;8446;50.998;6.250;2022-07-18T01:27:14;10.53;;;3.47;;
16665;SDS011;8446;50.998;6.250;2022-07-18T01:29:43;8.30;;;3.53;;
16665;SDS011;8446;50.998;6.250;2022-07-18T01:32:11;17.40;;;3.50;;
16665;SDS011;8446;50.998;6.250;2022-07-18T01:34:39;5.23;;;3.47;;
16665;SDS011;8446;50.998;6.250;2022-07-18T01:37:07;8.63;;;3.27;;
16665;SDS011;8446;50.998;6.250;2022-07-18T01:39:36;5.63;;;3.03;;
16665;SDS011;8446;50.998;6.250;2022-07-18T01:42:03;6.40;;;3.80;;
16665;SDS011;8446;50.998;6.250;2022-07-18T01:44:32;14.03;;;3.47;;
16665;SDS011;8446;50.998;6.250;2022-07-18T01:47:00;9.60;;;3.47;;
16665;SDS011;8446;50.998;6.250;2022-07-18T01:49:28;7.50;;;3.47;;
16665;SDS011;8446;50.998;6.250;2022-07-18T01:51:55;5.33;;;3.23;;
16665;SDS011;8446;50.998;6.250;2022-07-18T01:54:23;6.83;;;3.13;;
16665;SDS011;8446;50.998;6.250;2022-07-18T01:56:53;6.73;;;3.50;;
16665;SDS011;8446;50.998;6.250;2022-07-18T01:59:20;11.00;;;3.87;;
16665;SDS011;8446;50.998;6.250;2022-07-18T02:01:47;13.23;;;3.73;;
16665;SDS011;8446;50.998;6.250;2022-07-18T02:04:14;7.77;;;3.60;;
16665;SDS011;8446;50.998;6.250;2022-07-18T02:06:41;15.97;;;3.20;;
16665;SDS011;8446;50.998;6.250;2022-07-18T02:09:08;8.17;;;3.13;;
16665;SDS011;8446;50.998;6.250;2022-07-18T02:11:36;9.10;;;5.10;;
16665;SDS011;8446;50.998;6.250;2022-07-18T02:14:05;11.47;;;3.60;;
16665;SDS011;8446;50.998;6.250;2022-07-18T02:16:32;11.10;;;4.07;;
16665;SDS011;8446;50.998;6.250;2022-07-18T02:18:59;11.03;;;3.93;;
16665;SDS011;8446;50.998;6.250;2022-07-18T02:21:26;4.70;;;3.50;;
16665;SDS011;8446;50.998;6.250;2022-07-18T02:23:53;5.80;;;3.40;;
16665;SDS011;8446;50.998;6.250;2022-07-18T02:26:19;18.53;;;6.23;;
16665;SDS011;8446;50.998;6.250;2022-07-18T02:28:46;10.10;;;3.00;;
16665;SDS011;8446;50.998;6.250;2022-07-18T02:31:14;4.80;;;3.03;;
16665;SDS011;8446;50.998;6.250;2022-07-18T02:33:41;4.90;;;2.70;;
16665;SDS011;8446;50.998;6.250;2022-07-18T02:36:08;7.80;;;3.50;;
16665;SDS011;8446;50.998;6.250;2022-07-18T02:38:35;5.87;;;3.20;;
16665;SDS011;8446;50.998;6.250;2022-07-18T02:41:02;8.13;;;3.30;;
16665;SDS011;8446;50.998;6.250;2022-07-18T02:43:29;10.23;;;3.23;;
16665;SDS011;8446;50.998;6.250;2022-07-18T02:45:56;6.03;;;3.33;;
16665;SDS011;8446;50.998;6.250;2022-07-18T02:48:24;8.00;;;3.13;;
16665;SDS011;8446;50.998;6.250;2022-07-18T02:50:51;5.07;;;3.50;;
16665;SDS011;8446;50.998;6.250;2022-07-18T02:53:18;9.27;;;3.87;;
16665;SDS011;8446;50.998;6.250;2022-07-18T02:55:48;10.47;;;3.40;;
16665;SDS011;8446;50.998;6.250;2022-07-18T02:58:15;11.17;;;3.70;;
16665;SDS011;8446;50.998;6.250;2022-07-18T03:00:42;12.83;;;3.70;;
16665;SDS011;8446;50.998;6.250;2022-07-18T03:03:09;9.17;;;3.70;;
16665;SDS011;8446;50.998;6.250;2022-07-18T03:05:37;10.53;;;3.67;;
16665;SDS011;8446;50.998;6.250;2022-07-18T03:08:03;8.50;;;4.80;;
16665;SDS011;8446;50.998;6.250;2022-07-18T03:10:30;8.73;;;3.53;;
16665;SDS011;8446;50.998;6.250;2022-07-18T03:12:57;13.47;;;4.00;;
16665;SDS011;8446;50.998;6.250;2022-07-18T03:15:24;9.60;;;3.20;;
16665;SDS011;8446;50.998;6.250;2022-07-18T03:17:51;7.33;;;3.57;;
16665;SDS011;8446;50.998;6.250;2022-07-18T03:20:17;10.33;;;3.67;;
16665;SDS011;8446;50.998;6.250;2022-07-18T03:22:46;8.37;;;3.70;;
16665;SDS011;8446;50.998;6.250;2022-07-18T03:25:13;13.73;;;4.00;;
16665;SDS011;8446;50.998;6.250;2022-07-18T03:27:40;3.93;;;2.87;;
16665;SDS011;8446;50.998;6.250;2022-07-18T03:30:07;12.97;;;4.20;;
16665;SDS011;8446;50.998;6.250;2022-07-18T03:32:34;16.53;;;3.77;;
16665;SDS011;8446;50.998;6.250;2022-07-18T03:35:01;10.77;;;3.83;;
16665;SDS011;8446;50.998;6.250;2022-07-18T03:37:28;13.10;;;4.17;;
16665;SDS011;8446;50.998;6.250;2022-07-18T03:39:57;9.00;;;3.70;;
16665;SDS011;8446;50.998;6.250;2022-07-18T03:42:23;13.20;;;4.90;;
16665;SDS011;8446;50.998;6.250;2022-07-18T03:44:50;9.33;;;4.30;;
16665;SDS011;8446;50.998;6.250;2022-07-18T03:47:17;11.07;;;3.87;;
16665;SDS011;8446;50.998;6.250;2022-07-18T03:49:44;8.07;;;3.40;;
16665;SDS011;8446;50.998;6.250;2022-07-18T03:52:11;24.97;;;3.93;;
16665;SDS011;8446;50.998;6.250;2022-07-18T03:54:38;5.10;;;3.57;;
16665;SDS011;8446;50.998;6.250;2022-07-18T03:57:06;12.23;;;3.93;;
16665;SDS011;8446;50.998;6.250;2022-07-18T03:59:33;10.13;;;3.37;;
16665;SDS011;8446;50.998;6.250;2022-07-18T04:02:00;10.37;;;3.90;;
16665;SDS011;8446;50.998;6.250;2022-07-18T04:04:27;6.20;;;3.33;;
16665;SDS011;8446;50.998;6.250;2022-07-18T04:06:54;6.40;;;2.93;;
16665;SDS011;8446;50.998;6.250;2022-07-18T04:09:24;9.20;;;3.70;;
16665;SDS011;8446;50.998;6.250;2022-07-18T04:11:51;7.30;;;3.47;;
16665;SDS011;8446;50.998;6.250;2022-07-18T04:14:19;9.37;;;3.67;;
16665;SDS011;8446;50.998;6.250;2022-07-18T04:16:47;10.57;;;4.10;;
16665;SDS011;8446;50.998;6.250;2022-07-18T04:19:14;17.30;;;4.10;;
16665;SDS011;8446;50.998;6.250;2022-07-18T04:21:42;8.40;;;3.90;;
16665;SDS011;8446;50.998;6.250;2022-07-18T04:24:09;6.97;;;3.87;;
16665;SDS011;8446;50.998;6.250;2022-07-18T04:26:36;6.73;;;4.07;;
16665;SDS011;8446;50.998;6.250;2022-07-18T04:29:03;7.90;;;3.50;;
16665;SDS011;8446;50.998;6.250;2022-07-18T04:31:31;9.37;;;4.00;;
16665;SDS011;8446;50.998;6.250;2022-07-18T04:33:58;10.33;;;3.63;;
16665;SDS011;8446;50.998;6.250;2022-07-18T04:36:25;6.73;;;3.50;;
16665;SDS011;8446;50.998;6.250;2022-07-18T04:38:52;9.00;;;4.00;;
16665;SDS011;8446;50.998;6.250;2022-07-18T04:41:19;17.70;;;4.00;;
16665;SDS011;8446;50.998;6.250;2022-07-18T04:43:48;7.70;;;4.17;;
16665;SDS011;8446;50.998;6.250;2022-07-18T04:46:14;16.60;;;4.97;;
16665;SDS011;8446;50.998;6.250;2022-07-18T04:48:43;13.33;;;3.77;;
16665;SDS011;8446;50.998;6.250;2022-07-18T04:51:10;9.00;;;4.87;;
16665;SDS011;8446;50.998;6.250;2022-07-18T04:53:36;9.83;;;4.50;;
16665;SDS011;8446;50.998;6.250;2022-07-18T04:56:03;14.63;;;3.63;;
16665;SDS011;8446;50.998;6.250;2022-07-18T04:58:30;6.77;;;4.60;;
16665;SDS011;8446;50.998;6.250;2022-07-18T05:00:57;7.47;;;3.50;;
16665;SDS011;8446;50.998;6.250;2022-07-18T05:03:24;10.13;;;4.80;;
16665;SDS011;8446;50.998;6.250;2022-07-18T05:05:52;7.83;;;4.30;;
16665;SDS011;8446;50.998;6.250;2022-07-18T05:08:19;9.77;;;4.03;;
16665;SDS011;8446;50.998;6.250;2022-07-18T05:10:46;16.03;;;4.80;;
16665;SDS011;8446;50.998;6.250;2022-07-18T05:13:13;16.77;;;3.87;;
16665;SDS011;8446;50.998;6.250;2022-07-18T05:15:40;8.77;;;3.87;;
16665;SDS011;8446;50.998;6.250;2022-07-18T05:18:06;9.40;;;3.47;;
16665;SDS011;8446;50.998;6.250;2022-07-18T05:20:33;8.43;;;4.00;;
16665;SDS011;8446;50.998;6.250;2022-07-18T05:23:02;6.07;;;3.87;;
16665;SDS011;8446;50.998;6.250;2022-07-18T05:25:28;7.03;;;3.63;;
16665;SDS011;8446;50.998;6.250;2022-07-18T05:27:55;11.73;;;3.67;;
16665;SDS011;8446;50.998;6.250;2022-07-18T05:30:23;20.47;;;4.77;;
16665;SDS011;8446;50.998;6.250;2022-07-18T05:32:50;8.20;;;4.10;;
16665;SDS011;8446;50.998;6.250;2022-07-18T05:35:18;13.17;;;4.03;;
16665;SDS011;8446;50.998;6.250;2022-07-18T05:37:45;12.57;;;3.20;;
16665;SDS011;8446;50.998;6.250;2022-07-18T05:40:14;7.90;;;3.17;;
16665;SDS011;8446;50.998;6.250;2022-07-18T05:42:41;9.13;;;3.63;;
16665;SDS011;8446;50.998;6.250;2022-07-18T05:45:09;14.30;;;3.97;;
16665;SDS011;8446;50.998;6.250;2022-07-18T05:47:36;13.73;;;4.73;;
16665;SDS011;8446;50.998;6.250;2022-07-18T05:50:04;11.97;;;3.53;;
16665;SDS011;8446;50.998;6.250;2022-07-18T05:52:31;18.60;;;5.80;;
16665;SDS011;8446;50.998;6.250;2022-07-18T05:54:59;18.30;;;4.20;;
16665;SDS011;8446;50.998;6.250;2022-07-18T05:57:27;16.13;;;3.80;;
16665;SDS011;8446;50.998;6.250;2022-07-18T05:59:54;17.50;;;4.57;;
16665;SDS011;8446;50.998;6.250;2022-07-18T06:02:21;11.97;;;3.60;;
16665;SDS011;8446;50.998;6.250;2022-07-18T06:04:48;12.17;;;3.60;;
16665;SDS011;8446;50.998;6.250;2022-07-18T06:07:15;20.70;;;4.17;;
16665;SDS011;8446;50.998;6.250;2022-07-18T06:09:41;6.83;;;3.50;;
16665;SDS011;8446;50.998;6.250;2022-07-18T06:12:08;23.23;;;4.07;;
16665;SDS011;8446;50.998;6.250;2022-07-18T06:14:36;19.70;;;3.80;;
16665;SDS011;8446;50.998;6.250;2022-07-18T06:17:03;6.90;;;3.77;;
16665;SDS011;8446;50.998;6.250;2022-07-18T06:19:31;9.10;;;3.30;;
16665;SDS011;8446;50.998;6.250;2022-07-18T06:21:58;18.70;;;3.10;;
16665;SDS011;8446;50.998;6.250;2022-07-18T06:24:25;8.27;;;3.13;;
16665;SDS011;8446;50.998;6.250;2022-07-18T06:26:52;7.93;;;3.40;;
16665;SDS011;8446;50.998;6.250;2022-07-18T06:29:19;10.77;;;4.40;;
16665;SDS011;8446;50.998;6.250;2022-07-18T06:31:47;10.03;;;3.20;;
16665;SDS011;8446;50.998;6.250;2022-07-18T06:34:14;8.63;;;3.10;;
16665;SDS011;8446;50.998;6.250;2022-07-18T06:36:41;10.40;;;3.30;;
16665;SDS011;8446;50.998;6.250;2022-07-18T06:39:08;8.90;;;2.73;;
16665;SDS011;8446;50.998;6.250;2022-07-18T06:41:36;12.67;;;3.30;;
16665;SDS011;8446;50.998;6.250;2022-07-18T06:44:04;7.47;;;3.67;;
16665;SDS011;8446;50.998;6.250;2022-07-18T06:46:31;9.07;;;3.00;;
16665;SDS011;8446;50.998;6.250;2022-07-18T06:48:59;9.13;;;2.80;;
16665;SDS011;8446;50.998;6.250;2022-07-18T06:51:27;10.67;;;3.10;;
16665;SDS011;8446;50.998;6.250;2022-07-18T06:53:54;9.93;;;3.30;;
16665;SDS011;8446;50.998;6.250;2022-07-18T06:56:21;12.43;;;3.40;;
16665;SDS011;8446;50.998;6.250;2022-07-18T06:58:48;8.67;;;2.93;;
16665;SDS011;8446;50.998;6.250;2022-07-18T07:01:16;11.53;;;3.33;;
16665;SDS011;8446;50.998;6.250;2022-07-18T07:03:43;17.47;;;3.50;;
16665;SDS011;8446;50.998;6.250;2022-07-18T07:06:12;9.70;;;3.03;;
16665;SDS011;8446;50.998;6.250;2022-07-18T07:08:40;13.17;;;2.90;;
16665;SDS011;8446;50.998;6.250;2022-07-18T07:11:08;8.10;;;2.30;;
16665;SDS011;8446;50.998;6.250;2022-07-18T07:13:36;6.53;;;2.47;;
16665;SDS011;8446;50.998;6.250;2022-07-18T07:16:03;6.30;;;2.77;;
16665;SDS011;8446;50.998;6.250;2022-07-18T07:18:30;10.93;;;2.90;;
16665;SDS011;8446;50.998;6.250;2022-07-18T07:20:57;11.53;;;2.57;;
16665;SDS011;8446;50.998;6.250;2022-07-18T07:23:26;10.70;;;2.97;;
16665;SDS011;8446;50.998;6.250;2022-07-18T07:25:57;9.33;;;2.70;;
16665;SDS011;8446;50.998;6.250;2022-07-18T07:28:24;16.43;;;3.27;;
16665;SDS011;8446;50.998;6.250;2022-07-18T07:30:51;6.90;;;2.50;;
16665;SDS011;8446;50.998;6.250;2022-07-18T07:33:17;3.03;;;2.17;;
16665;SDS011;8446;50.998;6.250;2022-07-18T07:35:44;10.13;;;2.53;;
16665;SDS011;8446;50.998;6.250;2022-07-18T07:38:11;11.33;;;2.70;;
16665;SDS011;8446;50.998;6.250;2022-07-18T07:40:44;5.93;;;2.60;;
16665;SDS011;8446;50.998;6.250;2022-07-18T07:43:13;11.00;;;2.40;;
16665;SDS011;8446;50.998;6.250;2022-07-18T07:45:41;7.83;;;3.67;;
16665;SDS011;8446;50.998;6.250;2022-07-18T07:48:08;13.10;;;3.00;;
16665;SDS011;8446;50.998;6.250;2022-07-18T07:50:35;6.87;;;2.43;;
16665;SDS011;8446;50.998;6.250;2022-07-18T07:53:02;8.30;;;2.60;;
16665;SDS011;8446;50.998;6.250;2022-07-18T07:55:29;7.33;;;2.37;;
16665;SDS011;8446;50.998;6.250;2022-07-18T07:57:58;6.20;;;2.47;;
16665;SDS011;8446;50.998;6.250;2022-07-18T08:00:25;14.80;;;2.70;;
16665;SDS011;8446;50.998;6.250;2022-07-18T08:02:53;3.73;;;2.30;;
16665;SDS011;8446;50.998;6.250;2022-07-18T08:05:21;3.63;;;2.00;;
16665;SDS011;8446;50.998;6.250;2022-07-18T08:07:48;12.50;;;1.97;;
16665;SDS011;8446;50.998;6.250;2022-07-18T08:10:15;7.83;;;2.20;;
16665;SDS011;8446;50.998;6.250;2022-07-18T08:12:42;5.27;;;2.40;;
16665;SDS011;8446;50.998;6.250;2022-07-18T08:15:11;4.80;;;2.20;;
16665;SDS011;8446;50.998;6.250;2022-07-18T08:17:38;9.70;;;2.00;;
16665;SDS011;8446;50.998;6.250;2022-07-18T08:20:05;8.13;;;2.23;;
16665;SDS011;8446;50.998;6.250;2022-07-18T08:22:33;8.73;;;1.77;;
16665;SDS011;8446;50.998;6.250;2022-07-18T08:25:00;6.10;;;2.23;;
16665;SDS011;8446;50.998;6.250;2022-07-18T08:27:27;5.17;;;1.63;;
16665;SDS011;8446;50.998;6.250;2022-07-18T08:29:55;4.53;;;1.70;;
16665;SDS011;8446;50.998;6.250;2022-07-18T08:32:23;4.47;;;1.67;;
16665;SDS011;8446;50.998;6.250;2022-07-18T08:34:50;3.83;;;1.90;;
16665;SDS011;8446;50.998;6.250;2022-07-18T08:37:18;4.70;;;1.87;;
16665;SDS011;8446;50.998;6.250;2022-07-18T08:39:45;9.37;;;1.90;;
16665;SDS011;8446;50.998;6.250;2022-07-18T08:42:12;10.70;;;2.07;;
16665;SDS011;8446;50.998;6.250;2022-07-18T08:44:40;6.77;;;1.63;;
16665;SDS011;8446;50.998;6.250;2022-07-18T08:47:07;6.03;;;1.83;;
16665;SDS011;8446;50.998;6.250;2022-07-18T08:49:36;11.03;;;1.80;;
16665;SDS011;8446;50.998;6.250;2022-07-18T08:52:04;7.40;;;1.90;;
16665;SDS011;8446;50.998;6.250;2022-07-18T08:54:31;3.10;;;1.70;;
16665;SDS011;8446;50.998;6.250;2022-07-18T08:56:58;1.90;;;1.50;;
16665;SDS011;8446;50.998;6.250;2022-07-18T08:59:26;3.33;;;1.67;;
16665;SDS011;8446;50.998;6.250;2022-07-18T09:01:53;6.00;;;1.80;;
16665;SDS011;8446;50.998;6.250;2022-07-18T09:04:32;3.33;;;1.80;;
16665;SDS011;8446;50.998;6.250;2022-07-18T09:07:01;9.83;;;1.63;;
16665;SDS011;8446;50.998;6.250;2022-07-18T09:09:30;4.33;;;1.70;;
16665;SDS011;8446;50.998;6.250;2022-07-18T09:11:59;6.00;;;1.53;;
16665;SDS011;8446;50.998;6.250;2022-07-18T09:14:28;5.53;;;1.47;;
16665;SDS011;8446;50.998;6.250;2022-07-18T09:17:00;2.73;;;1.50;;
16665;SDS011;8446;50.998;6.250;2022-07-18T09:19:29;5.33;;;1.67;;
16665;SDS011;8446;50.998;6.250;2022-07-18T09:24:50;5.93;;;1.30;;
16665;SDS011;8446;50.998;6.250;2022-07-18T09:27:22;4.27;;;1.60;;
16665;SDS011;8446;50.998;6.250;2022-07-18T09:30:04;5.73;;;1.80;;
16665;SDS011;8446;50.998;6.250;2022-07-18T09:32:34;1.60;;;1.40;;
16665;SDS011;8446;50.998;6.250;2022-07-18T09:35:04;5.77;;;1.73;;
16665;SDS011;8446;50.998;6.250;2022-07-18T09:37:33;3.43;;;1.30;;
16665;SDS011;8446;50.998;6.250;2022-07-18T09:40:13;1.90;;;1.30;;
16665;SDS011;8446;50.998;6.250;2022-07-18T09:42:41;7.47;;;1.70;;
16665;SDS011;8446;50.998;6.250;2022-07-18T09:45:08;5.13;;;1.30;;
16665;SDS011;8446;50.998;6.250;2022-07-18T09:47:47;5.20;;;1.67;;
16665;SDS011;8446;50.998;6.250;2022-07-18T09:50:20;3.23;;;2.07;;
16665;SDS011;8446;50.998;6.250;2022-07-18T09:55:43;3.20;;;1.63;;
16665;SDS011;8446;50.998;6.250;2022-07-18T09:58:13;4.07;;;1.77;;
16665;SDS011;8446;50.998;6.250;2022-07-18T10:00:41;5.57;;;1.40;;
16665;SDS011;8446;50.998;6.250;2022-07-18T10:03:09;2.20;;;1.27;;
16665;SDS011;8446;50.998;6.250;2022-07-18T10:05:36;2.43;;;1.60;;
16665;SDS011;8446;50.998;6.250;2022-07-18T10:08:05;2.00;;;1.40;;
16665;SDS011;8446;50.998;6.250;2022-07-18T10:10:33;1.77;;;1.33;;
16665;SDS011;8446;50.998;6.250;2022-07-18T10:13:02;9.87;;;1.63;;
16665;SDS011;8446;50.998;6.250;2022-07-18T10:15:31;4.20;;;3.00;;
16665;SDS011;8446;50.998;6.250;2022-07-18T10:17:59;4.00;;;1.47;;
16665;SDS011;8446;50.998;6.250;2022-07-18T10:20:32;4.93;;;1.60;;
16665;SDS011;8446;50.998;6.250;2022-07-18T10:23:06;2.90;;;1.47;;
16665;SDS011;8446;50.998;6.250;2022-07-18T10:25:35;4.10;;;1.70;;
16665;SDS011;8446;50.998;6.250;2022-07-18T10:28:05;4.40;;;1.80;;
16665;SDS011;8446;50.998;6.250;2022-07-18T10:30:35;6.23;;;1.50;;
16665;SDS011;8446;50.998;6.250;2022-07-18T10:33:04;22.03;;;1.80;;
16665;SDS011;8446;50.998;6.250;2022-07-18T10:36:05;1.97;;;1.43;;
16665;SDS011;8446;50.998;6.250;2022-07-18T10:38:33;1.83;;;1.53;;
16665;SDS011;8446;50.998;6.250;2022-07-18T10:41:01;5.57;;;1.50;;
16665;SDS011;8446;50.998;6.250;2022-07-18T10:43:32;2.40;;;1.20;;
16665;SDS011;8446;50.998;6.250;2022-07-18T10:46:01;7.73;;;1.20;;
16665;SDS011;8446;50.998;6.250;2022-07-18T10:51:19;3.23;;;1.63;;
16665;SDS011;8446;50.998;6.250;2022-07-18T10:54:09;5.07;;;1.50;;
16665;SDS011;8446;50.998;6.250;2022-07-18T10:59:34;6.67;;;1.50;;
16665;SDS011;8446;50.998;6.250;2022-07-18T11:02:03;9.93;;;1.10;;
16665;SDS011;8446;50.998;6.250;2022-07-18T11:04:33;3.93;;;1.50;;
16665;SDS011;8446;50.998;6.250;2022-07-18T11:07:07;4.30;;;1.70;;
16665;SDS011;8446;50.998;6.250;2022-07-18T11:09:36;3.43;;;1.50;;
16665;SDS011;8446;50.998;6.250;2022-07-18T11:15:07;3.70;;;1.87;;
16665;SDS011;8446;50.998;6.250;2022-07-18T11:20:27;1.43;;;1.33;;
16665;SDS011;8446;50.998;6.250;2022-07-18T11:22:56;4.30;;;2.33;;
16665;SDS011;8446;50.998;6.250;2022-07-18T11:25:26;2.10;;;1.30;;
16665;SDS011;8446;50.998;6.250;2022-07-18T11:27:54;1.53;;;1.43;;
16665;SDS011;8446;50.998;6.250;2022-07-18T11:30:23;1.53;;;1.10;;
16665;SDS011;8446;50.998;6.250;2022-07-18T11:32:50;4.47;;;1.40;;
16665;SDS011;8446;50.998;6.250;2022-07-18T11:35:21;8.10;;;1.70;;
16665;SDS011;8446;50.998;6.250;2022-07-18T11:37:49;10.70;;;1.20;;
16665;SDS011;8446;50.998;6.250;2022-07-18T11:40:17;1.10;;;1.00;;
16665;SDS011;8446;50.998;6.250;2022-07-18T11:42:44;2.00;;;1.53;;
16665;SDS011;8446;50.998;6.250;2022-07-18T11:45:12;1.30;;;1.20;;
16665;SDS011;8446;50.998;6.250;2022-07-18T11:47:46;4.93;;;1.40;;
16665;SDS011;8446;50.998;6.250;2022-07-18T11:50:15;2.57;;;1.43;;
16665;SDS011;8446;50.998;6.250;2022-07-18T11:52:42;1.17;;;1.07;;
16665;SDS011;8446;50.998;6.250;2022-07-18T11:55:10;1.40;;;1.30;;
16665;SDS011;8446;50.998;6.250;2022-07-18T11:57:38;11.00;;;1.63;;
16665;SDS011;8446;50.998;6.250;2022-07-18T12:00:15;15.27;;;2.07;;
16665;SDS011;8446;50.998;6.250;2022-07-18T12:02:43;1.77;;;1.50;;
16665;SDS011;8446;50.998;6.250;2022-07-18T12:05:12;2.80;;;1.20;;
16665;SDS011;8446;50.998;6.250;2022-07-18T12:07:39;1.50;;;1.40;;
16665;SDS011;8446;50.998;6.250;2022-07-18T12:10:15;1.87;;;1.30;;
16665;SDS011;8446;50.998;6.250;2022-07-18T12:12:43;1.97;;;1.40;;
16665;SDS011;8446;50.998;6.250;2022-07-18T12:15:10;2.93;;;1.37;;
16665;SDS011;8446;50.998;6.250;2022-07-18T12:17:42;1.43;;;1.23;;
16665;SDS011;8446;50.998;6.250;2022-07-18T12:20:12;1.33;;;1.23;;
16665;SDS011;8446;50.998;6.250;2022-07-18T12:25:54;3.83;;;1.20;;
16665;SDS011;8446;50.998;6.250;2022-07-18T12:28:21;6.40;;;1.40;;
16665;SDS011;8446;50.998;6.250;2022-07-18T12:30:51;2.17;;;1.23;;
16665;SDS011;8446;50.998;6.250;2022-07-18T12:33:18;2.47;;;1.47;;
16665;SDS011;8446;50.998;6.250;2022-07-18T12:35:48;1.70;;;1.13;;
16665;SDS011;8446;50.998;6.250;2022-07-18T12:38:21;1.97;;;1.20;;
16665;SDS011;8446;50.998;6.250;2022-07-18T12:40:49;1.50;;;1.20;;
16665;SDS011;8446;50.998;6.250;2022-07-18T12:43:22;2.50;;;1.23;;
16665;SDS011;8446;50.998;6.250;2022-07-18T12:45:50;2.60;;;1.20;;
16665;SDS011;8446;50.998;6.250;2022-07-18T12:48:17;1.00;;;1.00;;
16665;SDS011;8446;50.998;6.250;2022-07-18T12:50:53;3.37;;;1.37;;
16665;SDS011;8446;50.998;6.250;2022-07-18T12:53:22;5.70;;;1.30;;
16665;SDS011;8446;50.998;6.250;2022-07-18T12:55:49;1.20;;;1.10;;
16665;SDS011;8446;50.998;6.250;2022-07-18T12:58:16;1.33;;;1.20;;
16665;SDS011;8446;50.998;6.250;2022-07-18T13:00:43;4.37;;;1.23;;
16665;SDS011;8446;50.998;6.250;2022-07-18T13:03:11;3.47;;;1.27;;
16665;SDS011;8446;50.998;6.250;2022-07-18T13:05:38;5.80;;;1.10;;
16665;SDS011;8446;50.998;6.250;2022-07-18T13:08:06;2.13;;;1.50;;
16665;SDS011;8446;50.998;6.250;2022-07-18T13:10:35;3.33;;;1.30;;
16665;SDS011;8446;50.998;6.250;2022-07-18T13:13:02;1.03;;;0.93;;
16665;SDS011;8446;50.998;6.250;2022-07-18T13:15:29;7.30;;;1.23;;
16665;SDS011;8446;50.998;6.250;2022-07-18T13:17:56;1.60;;;1.50;;
16665;SDS011;8446;50.998;6.250;2022-07-18T13:20:23;2.87;;;1.00;;
16665;SDS011;8446;50.998;6.250;2022-07-18T13:22:50;4.03;;;1.30;;
16665;SDS011;8446;50.998;6.250;2022-07-18T13:25:18;2.03;;;1.27;;
16665;SDS011;8446;50.998;6.250;2022-07-18T13:27:46;2.30;;;1.17;;
16665;SDS011;8446;50.998;6.250;2022-07-18T13:30:13;1.23;;;1.00;;
16665;SDS011;8446;50.998;6.250;2022-07-18T13:32:40;2.03;;;1.20;;
16665;SDS011;8446;50.998;6.250;2022-07-18T13:35:09;3.17;;;1.30;;
16665;SDS011;8446;50.998;6.250;2022-07-18T13:37:37;3.87;;;1.10;;
16665;SDS011;8446;50.998;6.250;2022-07-18T13:40:04;5.60;;;1.50;;
16665;SDS011;8446;50.998;6.250;2022-07-18T13:42:34;2.35;;;1.00;;
16665;SDS011;8446;50.998;6.250;2022-07-18T13:45:02;0.90;;;0.90;;
16665;SDS011;8446;50.998;6.250;2022-07-18T13:47:29;1.27;;;1.17;;
16665;SDS011;8446;50.998;6.250;2022-07-18T13:49:56;2.45;;;1.30;;
16665;SDS011;8446;50.998;6.250;2022-07-18T13:52:23;4.53;;;1.60;;
16665;SDS011;8446;50.998;6.250;2022-07-18T13:54:50;1.65;;;1.27;;
16665;SDS011;8446;50.998;6.250;2022-07-18T13:57:19;8.57;;;1.38;;
16665;SDS011;8446;50.998;6.250;2022-07-18T13:59:47;1.58;;;1.20;;
16665;SDS011;8446;50.998;6.250;2022-07-18T14:02:14;1.35;;;1.10;;
16665;SDS011;8446;50.998;6.250;2022-07-18T14:04:41;5.30;;;0.70;;
16665;SDS011;8446;50.998;6.250;2022-07-18T14:07:08;0.90;;;0.90;;
16665;SDS011;8446;50.998;6.250;2022-07-18T14:09:36;2.78;;;1.20;;
16665;SDS011;8446;50.998;6.250;2022-07-18T14:12:04;4.32;;;1.10;;
16665;SDS011;8446;50.998;6.250;2022-07-18T14:14:31;2.72;;;1.05;;
16665;SDS011;8446;50.998;6.250;2022-07-18T14:16:59;1.90;;;1.33;;
16665;SDS011;8446;50.998;6.250;2022-07-18T14:19:25;3.20;;;1.48;;
16665;SDS011;8446;50.998;6.250;2022-07-18T14:21:52;1.85;;;1.23;;
16665;SDS011;8446;50.998;6.250;2022-07-18T14:24:19;6.35;;;1.35;;
16665;SDS011;8446;50.998;6.250;2022-07-18T14:26:46;1.33;;;1.23;;
16665;SDS011;8446;50.998;6.250;2022-07-18T14:29:12;7.47;;;1.13;;
16665;SDS011;8446;50.998;6.250;2022-07-18T14:31:39;4.40;;;1.30;;
16665;SDS011;8446;50.998;6.250;2022-07-18T14:34:07;1.70;;;1.50;;
16665;SDS011;8446;50.998;6.250;2022-07-18T14:36:34;1.60;;;1.50;;
16665;SDS011;8446;50.998;6.250;2022-07-18T14:39:01;4.80;;;1.55;;
16665;SDS011;8446;50.998;6.250;2022-07-18T14:41:28;5.38;;;1.50;;
16665;SDS011;8446;50.998;6.250;2022-07-18T14:43:55;2.50;;;2.30;;
16665;SDS011;8446;50.998;6.250;2022-07-18T14:46:21;1.52;;;1.35;;
16665;SDS011;8446;50.998;6.250;2022-07-18T14:48:48;2.72;;;1.73;;
16665;SDS011;8446;50.998;6.250;2022-07-18T14:51:18;1.40;;;1.17;;
16665;SDS011;8446;50.998;6.250;2022-07-18T14:53:45;1.75;;;1.10;;
16665;SDS011;8446;50.998;6.250;2022-07-18T14:56:11;5.40;;;1.35;;
16665;SDS011;8446;50.998;6.250;2022-07-18T14:58:39;2.85;;;1.48;;
16665;SDS011;8446;50.998;6.250;2022-07-18T15:01:06;1.65;;;1.10;;
16665;SDS011;8446;50.998;6.250;2022-07-18T15:03:33;6.13;;;1.30;;
16665;SDS011;8446;50.998;6.250;2022-07-18T15:06:00;2.35;;;1.20;;
16665;SDS011;8446;50.998;6.250;2022-07-18T15:08:28;2.15;;;1.35;;
16665;SDS011;8446;50.998;6.250;2022-07-18T15:10:54;9.18;;;1.20;;
16665;SDS011;8446;50.998;6.250;2022-07-18T15:13:21;1.70;;;1.20;;
16665;SDS011;8446;50.998;6.250;2022-07-18T15:15:48;1.60;;;1.20;;
16665;SDS011;8446;50.998;6.250;2022-07-18T15:18:16;2.65;;;1.38;;
16665;SDS011;8446;50.998;6.250;2022-07-18T15:20:43;5.10;;;1.70;;
16665;SDS011;8446;50.998;6.250;2022-07-18T15:23:10;1.40;;;1.30;;